sensor_id;sensor_type;location;lat;lon;timestamp;pressure;altitude;pressure_sealevel;temperature;humidity
52469;BME280;38381;53.688;10.776;2024-02-26T00:02:09;100082.22;;;3.68;90.53
52469;BME280;38381;53.688;10.776;2024-02-26T00:07:09;100087.97;;;3.58;90.10
52469;BME280;38381;53.688;10.776;2024-02-26T00:12:09;100091.09;;;3.46;89.30
52469;BME280;38381;53.688;10.776;2024-02-26T00:17:10;100092.53;;;3.35;90.01
52469;BME280;38381;53.688;10.776;2024-02-26T00:22:10;100094.28;;;3.37;89.78
52469;BME280;38381;53.688;10.776;2024-02-26T00:27:11;100089.63;;;3.21;90.15
52469;BME280;38381;53.688;10.776;2024-02-26T00:32:11;100091.13;;;3.13;89.86
52469;BME280;38381;53.688;10.776;2024-02-26T00:37:11;100098.53;;;3.02;89.86
52469;BME280;38381;53.688;10.776;2024-02-26T00:42:12;100097.19;;;2.85;90.03
52469;BME280;38381;53.688;10.776;2024-02-26T00:47:12;100090.38;;;2.84;89.69
52469;BME280;38381;53.688;10.776;2024-02-26T00:52:13;100105.03;;;2.89;89.69
52469;BME280;38381;53.688;10.776;2024-02-26T00:57:13;100102.63;;;2.64;89.92
52469;BME280;38381;53.688;10.776;2024-02-26T01:02:13;100099.88;;;2.57;89.50
52469;BME280;38381;53.688;10.776;2024-02-26T01:07:14;100101.69;;;2.61;89.54
52469;BME280;38381;53.688;10.776;2024-02-26T01:12:14;100092.78;;;2.47;89.21
52469;BME280;38381;53.688;10.776;2024-02-26T01:17:15;100102.66;;;2.35;89.71
52469;BME280;38381;53.688;10.776;2024-02-26T01:22:16;100110.88;;;2.25;90.56
52469;BME280;38381;53.688;10.776;2024-02-26T01:27:16;100105.88;;;2.28;89.58
52469;BME280;38381;53.688;10.776;2024-02-26T01:32:17;100095.16;;;2.12;89.07
52469;BME280;38381;53.688;10.776;2024-02-26T01:37:17;100097.84;;;2.15;89.11
52469;BME280;38381;53.688;10.776;2024-02-26T01:42:17;100102.78;;;2.11;88.89
52469;BME280;38381;53.688;10.776;2024-02-26T01:47:18;100110.03;;;1.95;89.73
52469;BME280;38381;53.688;10.776;2024-02-26T01:52:18;100107.94;;;1.84;89.31
52469;BME280;38381;53.688;10.776;2024-02-26T01:57:19;100114.81;;;1.85;89.70
52469;BME280;38381;53.688;10.776;2024-02-26T02:02:20;100116.47;;;1.84;89.61
52469;BME280;38381;53.688;10.776;2024-02-26T02:07:21;100123.19;;;1.80;90.08
52469;BME280;38381;53.688;10.776;2024-02-26T02:12:23;100123.94;;;1.78;89.11
52469;BME280;38381;53.688;10.776;2024-02-26T02:17:23;100123.69;;;1.69;89.68
52469;BME280;38381;53.688;10.776;2024-02-26T02:22:24;100126.94;;;1.65;91.18
52469;BME280;38381;53.688;10.776;2024-02-26T02:27:24;100120.09;;;1.64;90.66
52469;BME280;38381;53.688;10.776;2024-02-26T02:32:25;100120.88;;;1.61;90.83
52469;BME280;38381;53.688;10.776;2024-02-26T02:37:26;100120.06;;;1.62;90.84
52469;BME280;38381;53.688;10.776;2024-02-26T02:42:27;100118.13;;;1.55;91.53
52469;BME280;38381;53.688;10.776;2024-02-26T02:47:27;100116.34;;;1.52;91.89
52469;BME280;38381;53.688;10.776;2024-02-26T02:52:27;100118.94;;;1.54;91.75
52469;BME280;38381;53.688;10.776;2024-02-26T02:57:28;100117.19;;;1.53;92.96
52469;BME280;38381;53.688;10.776;2024-02-26T03:02:29;100122.22;;;1.50;94.02
52469;BME280;38381;53.688;10.776;2024-02-26T03:07:30;100128.84;;;1.45;94.29
52469;BME280;38381;53.688;10.776;2024-02-26T03:12:30;100128.97;;;1.48;93.16
52469;BME280;38381;53.688;10.776;2024-02-26T03:17:31;100133.88;;;1.42;93.35
52469;BME280;38381;53.688;10.776;2024-02-26T03:22:31;100132.13;;;1.40;92.65
52469;BME280;38381;53.688;10.776;2024-02-26T03:27:32;100123.47;;;1.37;91.85
52469;BME280;38381;53.688;10.776;2024-02-26T03:32:32;100127.59;;;1.32;92.89
52469;BME280;38381;53.688;10.776;2024-02-26T03:37:33;100136.81;;;1.28;93.92
52469;BME280;38381;53.688;10.776;2024-02-26T03:42:33;100136.63;;;1.22;94.18
52469;BME280;38381;53.688;10.776;2024-02-26T03:47:33;100139.22;;;1.24;93.95
52469;BME280;38381;53.688;10.776;2024-02-26T03:52:34;100153.31;;;1.12;93.70
52469;BME280;38381;53.688;10.776;2024-02-26T03:57:35;100164.06;;;1.04;94.21
52469;BME280;38381;53.688;10.776;2024-02-26T04:02:36;100171.78;;;1.05;93.06
52469;BME280;38381;53.688;10.776;2024-02-26T04:07:36;100188.47;;;0.95;92.81
52469;BME280;38381;53.688;10.776;2024-02-26T04:12:41;100184.28;;;0.97;93.06
52469;BME280;38381;53.688;10.776;2024-02-26T04:17:42;100196.97;;;0.94;91.61
52469;BME280;38381;53.688;10.776;2024-02-26T04:22:42;100197.75;;;0.93;91.21
52469;BME280;38381;53.688;10.776;2024-02-26T04:27:43;100204.19;;;0.84;92.15
52469;BME280;38381;53.688;10.776;2024-02-26T04:32:43;100205.81;;;0.82;92.57
52469;BME280;38381;53.688;10.776;2024-02-26T04:37:44;100213.31;;;0.77;93.07
52469;BME280;38381;53.688;10.776;2024-02-26T04:42:44;100225.09;;;0.73;94.05
52469;BME280;38381;53.688;10.776;2024-02-26T04:47:45;100235.06;;;0.67;94.16
52469;BME280;38381;53.688;10.776;2024-02-26T04:52:45;100255.91;;;0.55;93.10
52469;BME280;38381;53.688;10.776;2024-02-26T04:57:45;100263.81;;;0.62;92.09
52469;BME280;38381;53.688;10.776;2024-02-26T05:02:46;100269.41;;;0.53;92.61
52469;BME280;38381;53.688;10.776;2024-02-26T05:07:46;100271.94;;;0.53;93.12
52469;BME280;38381;53.688;10.776;2024-02-26T05:12:46;100272.94;;;0.56;91.67
52469;BME280;38381;53.688;10.776;2024-02-26T05:17:48;100277.81;;;0.50;91.25
52469;BME280;38381;53.688;10.776;2024-02-26T05:22:48;100280.25;;;0.47;90.85
52469;BME280;38381;53.688;10.776;2024-02-26T05:27:50;100276.53;;;0.39;91.56
52469;BME280;38381;53.688;10.776;2024-02-26T05:32:50;100275.84;;;0.43;90.71
52469;BME280;38381;53.688;10.776;2024-02-26T05:37:50;100277.41;;;0.39;90.77
52469;BME280;38381;53.688;10.776;2024-02-26T05:42:52;100287.28;;;0.32;91.58
52469;BME280;38381;53.688;10.776;2024-02-26T05:47:52;100296.31;;;0.24;91.50
52469;BME280;38381;53.688;10.776;2024-02-26T05:52:53;100294.06;;;0.31;91.59
52469;BME280;38381;53.688;10.776;2024-02-26T05:57:53;100300.78;;;0.29;91.35
52469;BME280;38381;53.688;10.776;2024-02-26T06:02:53;100306.66;;;0.27;91.09
52469;BME280;38381;53.688;10.776;2024-02-26T06:07:54;100307.69;;;0.32;91.77
52469;BME280;38381;53.688;10.776;2024-02-26T06:12:54;100327.06;;;0.27;91.94
52469;BME280;38381;53.688;10.776;2024-02-26T06:17:55;100333.13;;;0.30;91.89
52469;BME280;38381;53.688;10.776;2024-02-26T06:22:55;100328.03;;;0.30;90.43
52469;BME280;38381;53.688;10.776;2024-02-26T06:27:56;100332.16;;;0.27;91.12
52469;BME280;38381;53.688;10.776;2024-02-26T06:32:56;100339.59;;;0.22;91.08
52469;BME280;38381;53.688;10.776;2024-02-26T06:37:56;100355.16;;;0.28;91.74
52469;BME280;38381;53.688;10.776;2024-02-26T06:42:57;100360.50;;;0.34;91.64
52469;BME280;38381;53.688;10.776;2024-02-26T06:47:57;100356.34;;;0.36;91.70
52469;BME280;38381;53.688;10.776;2024-02-26T06:52:58;100359.88;;;0.40;92.30
52469;BME280;38381;53.688;10.776;2024-02-26T06:57:58;100362.69;;;0.46;92.89
52469;BME280;38381;53.688;10.776;2024-02-26T07:02:59;100356.34;;;0.57;92.44
52469;BME280;38381;53.688;10.776;2024-02-26T07:07:59;100361.75;;;0.65;93.49
52469;BME280;38381;53.688;10.776;2024-02-26T07:13:00;100368.09;;;0.75;94.00
52469;BME280;38381;53.688;10.776;2024-02-26T07:18:00;100373.56;;;0.84;93.91
52469;BME280;38381;53.688;10.776;2024-02-26T07:23:03;100377.97;;;0.88;95.47
52469;BME280;38381;53.688;10.776;2024-02-26T07:28:04;100384.38;;;0.99;94.58
52469;BME280;38381;53.688;10.776;2024-02-26T07:33:04;100384.75;;;1.09;95.09
52469;BME280;38381;53.688;10.776;2024-02-26T07:38:05;100379.97;;;1.18;94.44
52469;BME280;38381;53.688;10.776;2024-02-26T07:43:05;100391.19;;;1.22;94.89
52469;BME280;38381;53.688;10.776;2024-02-26T07:48:06;100389.84;;;1.31;95.16
52469;BME280;38381;53.688;10.776;2024-02-26T07:53:07;100395.28;;;1.40;95.81
52469;BME280;38381;53.688;10.776;2024-02-26T07:58:07;100399.28;;;1.56;96.38
52469;BME280;38381;53.688;10.776;2024-02-26T08:03:07;100404.09;;;1.71;96.48
52469;BME280;38381;53.688;10.776;2024-02-26T08:08:08;100417.31;;;1.84;96.56
52469;BME280;38381;53.688;10.776;2024-02-26T08:13:09;100422.16;;;2.00;96.88
52469;BME280;38381;53.688;10.776;2024-02-26T08:18:09;100435.44;;;2.14;96.66
52469;BME280;38381;53.688;10.776;2024-02-26T08:23:10;100431.34;;;2.19;98.09
52469;BME280;38381;53.688;10.776;2024-02-26T08:28:10;100434.38;;;2.33;98.40
52469;BME280;38381;53.688;10.776;2024-02-26T08:33:14;100442.44;;;2.44;97.91
52469;BME280;38381;53.688;10.776;2024-02-26T08:38:14;100435.78;;;2.49;98.14
52469;BME280;38381;53.688;10.776;2024-02-26T08:43:15;100439.63;;;2.61;98.13
52469;BME280;38381;53.688;10.776;2024-02-26T08:48:15;100442.50;;;2.71;97.41
52469;BME280;38381;53.688;10.776;2024-02-26T08:53:17;100449.16;;;2.91;97.20
52469;BME280;38381;53.688;10.776;2024-02-26T08:58:17;100445.28;;;3.04;97.28
52469;BME280;38381;53.688;10.776;2024-02-26T09:03:18;100447.97;;;3.09;97.07
52469;BME280;38381;53.688;10.776;2024-02-26T09:08:18;100450.13;;;3.22;97.81
52469;BME280;38381;53.688;10.776;2024-02-26T09:13:18;100456.72;;;3.42;97.50
52469;BME280;38381;53.688;10.776;2024-02-26T09:18:19;100455.47;;;3.58;97.16
52469;BME280;38381;53.688;10.776;2024-02-26T09:23:19;100458.44;;;3.72;97.28
52469;BME280;38381;53.688;10.776;2024-02-26T09:28:20;100465.59;;;3.82;97.82
52469;BME280;38381;53.688;10.776;2024-02-26T09:33:20;100468.28;;;3.87;97.56
52469;BME280;38381;53.688;10.776;2024-02-26T09:38:20;100471.97;;;3.97;97.39
52469;BME280;38381;53.688;10.776;2024-02-26T09:43:22;100474.50;;;4.26;97.75
52469;BME280;38381;53.688;10.776;2024-02-26T09:48:23;100480.06;;;4.42;96.64
52469;BME280;38381;53.688;10.776;2024-02-26T09:53:24;100481.16;;;4.51;96.48
52469;BME280;38381;53.688;10.776;2024-02-26T09:58:27;100489.75;;;4.51;96.04
52469;BME280;38381;53.688;10.776;2024-02-26T10:03:38;100495.47;;;4.74;94.99
52469;BME280;38381;53.688;10.776;2024-02-26T10:08:41;100506.22;;;4.93;95.07
52469;BME280;38381;53.688;10.776;2024-02-26T10:13:43;100501.44;;;5.08;94.46
52469;BME280;38381;53.688;10.776;2024-02-26T10:18:53;100506.97;;;5.23;94.03
52469;BME280;38381;53.688;10.776;2024-02-26T10:23:54;100509.44;;;5.20;93.49
52469;BME280;38381;53.688;10.776;2024-02-26T10:28:59;100519.25;;;5.35;92.88
52469;BME280;38381;53.688;10.776;2024-02-26T10:34:00;100515.69;;;5.30;92.48
52469;BME280;38381;53.688;10.776;2024-02-26T10:39:04;100520.97;;;5.36;92.11
52469;BME280;38381;53.688;10.776;2024-02-26T10:44:05;100524.97;;;5.60;91.48
52469;BME280;38381;53.688;10.776;2024-02-26T10:49:07;100529.97;;;5.54;91.34
52469;BME280;38381;53.688;10.776;2024-02-26T10:54:15;100538.31;;;5.45;91.14
52469;BME280;38381;53.688;10.776;2024-02-26T10:59:17;100535.84;;;5.48;91.12
52469;BME280;38381;53.688;10.776;2024-02-26T11:04:21;100541.22;;;5.59;90.97
52469;BME280;38381;53.688;10.776;2024-02-26T11:09:23;100539.06;;;5.77;91.09
52469;BME280;38381;53.688;10.776;2024-02-26T11:14:25;100539.28;;;5.87;91.73
52469;BME280;38381;53.688;10.776;2024-02-26T11:19:27;100539.44;;;5.93;91.29
52469;BME280;38381;53.688;10.776;2024-02-26T11:24:28;100542.16;;;5.99;91.27
52469;BME280;38381;53.688;10.776;2024-02-26T11:29:50;100537.06;;;6.02;90.31
52469;BME280;38381;53.688;10.776;2024-02-26T11:34:53;100539.47;;;6.35;90.84
52469;BME280;38381;53.688;10.776;2024-02-26T11:39:54;100540.34;;;6.36;90.91
52469;BME280;38381;53.688;10.776;2024-02-26T11:44:55;100548.94;;;6.36;90.06
52469;BME280;38381;53.688;10.776;2024-02-26T11:50:35;100552.81;;;6.58;89.75
52469;BME280;38381;53.688;10.776;2024-02-26T11:55:36;100556.25;;;6.59;89.93
52469;BME280;38381;53.688;10.776;2024-02-26T12:00:40;100553.47;;;6.50;89.26
52469;BME280;38381;53.688;10.776;2024-02-26T12:05:41;100560.59;;;6.61;89.38
52469;BME280;38381;53.688;10.776;2024-02-26T12:10:42;100565.25;;;6.37;88.77
52469;BME280;38381;53.688;10.776;2024-02-26T12:15:57;100569.81;;;6.50;89.25
52469;BME280;38381;53.688;10.776;2024-02-26T12:20:59;100583.63;;;6.54;89.87
52469;BME280;38381;53.688;10.776;2024-02-26T12:26:03;100585.28;;;6.52;89.06
52469;BME280;38381;53.688;10.776;2024-02-26T12:31:04;100590.00;;;6.71;88.99
52469;BME280;38381;53.688;10.776;2024-02-26T12:36:05;100584.78;;;6.70;89.12
52469;BME280;38381;53.688;10.776;2024-02-26T12:41:06;100589.28;;;6.80;88.81
52469;BME280;38381;53.688;10.776;2024-02-26T12:46:06;100589.25;;;6.78;88.14
52469;BME280;38381;53.688;10.776;2024-02-26T12:51:07;100592.75;;;6.82;88.76
52469;BME280;38381;53.688;10.776;2024-02-26T12:56:08;100601.63;;;6.96;88.52
52469;BME280;38381;53.688;10.776;2024-02-26T13:01:14;100603.31;;;6.94;87.71
52469;BME280;38381;53.688;10.776;2024-02-26T13:06:16;100613.50;;;6.88;87.95
52469;BME280;38381;53.688;10.776;2024-02-26T13:11:16;100631.63;;;6.91;87.39
52469;BME280;38381;53.688;10.776;2024-02-26T13:16:17;100634.84;;;6.81;87.15
52469;BME280;38381;53.688;10.776;2024-02-26T13:21:18;100648.72;;;6.88;87.15
52469;BME280;38381;53.688;10.776;2024-02-26T13:26:22;100649.97;;;6.64;87.25
52469;BME280;38381;53.688;10.776;2024-02-26T13:31:23;100652.69;;;6.72;87.41
52469;BME280;38381;53.688;10.776;2024-02-26T13:36:24;100661.41;;;6.78;86.82
52469;BME280;38381;53.688;10.776;2024-02-26T13:41:25;100659.28;;;6.57;86.50
52469;BME280;38381;53.688;10.776;2024-02-26T13:46:26;100662.97;;;6.69;86.99
52469;BME280;38381;53.688;10.776;2024-02-26T13:51:27;100669.97;;;6.76;87.12
52469;BME280;38381;53.688;10.776;2024-02-26T13:56:27;100669.78;;;6.67;87.15
52469;BME280;38381;53.688;10.776;2024-02-26T14:01:28;100672.31;;;6.65;87.01
52469;BME280;38381;53.688;10.776;2024-02-26T14:06:28;100678.34;;;6.65;86.58
52469;BME280;38381;53.688;10.776;2024-02-26T14:11:30;100684.81;;;6.47;87.43
52469;BME280;38381;53.688;10.776;2024-02-26T14:16:31;100688.97;;;6.40;86.95
52469;BME280;38381;53.688;10.776;2024-02-26T14:21:31;100696.03;;;6.49;86.93
52469;BME280;38381;53.688;10.776;2024-02-26T14:26:32;100699.69;;;6.20;87.13
52469;BME280;38381;53.688;10.776;2024-02-26T14:31:32;100700.09;;;6.39;87.13
52469;BME280;38381;53.688;10.776;2024-02-26T14:36:33;100708.22;;;6.57;87.01
52469;BME280;38381;53.688;10.776;2024-02-26T14:41:34;100710.00;;;6.58;86.49
52469;BME280;38381;53.688;10.776;2024-02-26T14:46:36;100722.59;;;6.48;86.72
52469;BME280;38381;53.688;10.776;2024-02-26T14:51:36;100730.06;;;6.35;86.67
52469;BME280;38381;53.688;10.776;2024-02-26T14:56:37;100728.09;;;6.25;87.04
52469;BME280;38381;53.688;10.776;2024-02-26T15:01:37;100730.25;;;6.07;86.97
52469;BME280;38381;53.688;10.776;2024-02-26T15:06:38;100733.72;;;6.07;87.47
52469;BME280;38381;53.688;10.776;2024-02-26T15:11:40;100741.28;;;6.02;87.62
52469;BME280;38381;53.688;10.776;2024-02-26T15:16:40;100745.69;;;6.05;87.17
52469;BME280;38381;53.688;10.776;2024-02-26T15:21:45;100751.63;;;6.04;87.67
52469;BME280;38381;53.688;10.776;2024-02-26T15:26:45;100761.44;;;5.85;88.27
52469;BME280;38381;53.688;10.776;2024-02-26T15:31:46;100772.50;;;5.81;88.15
52469;BME280;38381;53.688;10.776;2024-02-26T15:36:46;100776.41;;;5.67;88.50
52469;BME280;38381;53.688;10.776;2024-02-26T15:41:47;100785.66;;;5.60;88.76
52469;BME280;38381;53.688;10.776;2024-02-26T15:46:47;100778.31;;;5.42;89.15
52469;BME280;38381;53.688;10.776;2024-02-26T15:51:48;100778.47;;;5.18;88.80
52469;BME280;38381;53.688;10.776;2024-02-26T15:56:48;100792.44;;;4.96;90.57
52469;BME280;38381;53.688;10.776;2024-02-26T16:01:48;100791.16;;;5.12;90.54
52469;BME280;38381;53.688;10.776;2024-02-26T16:06:52;100797.28;;;5.16;90.45
52469;BME280;38381;53.688;10.776;2024-02-26T16:11:55;100821.44;;;4.92;91.90
52469;BME280;38381;53.688;10.776;2024-02-26T16:17:07;100817.44;;;5.02;91.39
52469;BME280;38381;53.688;10.776;2024-02-26T16:22:09;100826.06;;;5.04;91.11
52469;BME280;38381;53.688;10.776;2024-02-26T16:27:10;100841.78;;;4.57;92.17
52469;BME280;38381;53.688;10.776;2024-02-26T16:32:10;100853.34;;;4.72;92.18
52469;BME280;38381;53.688;10.776;2024-02-26T16:37:11;100865.34;;;4.73;91.85
52469;BME280;38381;53.688;10.776;2024-02-26T16:42:12;100876.09;;;4.59;92.24
52469;BME280;38381;53.688;10.776;2024-02-26T16:47:13;100868.63;;;4.41;93.00
52469;BME280;38381;53.688;10.776;2024-02-26T16:52:13;100877.13;;;4.39;92.96
52469;BME280;38381;53.688;10.776;2024-02-26T16:57:14;100886.09;;;4.52;nan
52469;BME280;38381;53.688;10.776;2024-02-26T17:02:15;100893.66;;;4.47;92.26
52469;BME280;38381;53.688;10.776;2024-02-26T17:07:16;100900.84;;;4.57;92.32
52469;BME280;38381;53.688;10.776;2024-02-26T17:12:16;100893.81;;;4.52;93.41
52469;BME280;38381;53.688;10.776;2024-02-26T17:17:18;100904.47;;;4.64;92.87
52469;BME280;38381;53.688;10.776;2024-02-26T17:22:18;100901.56;;;4.53;93.67
52469;BME280;38381;53.688;10.776;2024-02-26T17:27:19;100912.34;;;4.43;93.56
52469;BME280;38381;53.688;10.776;2024-02-26T17:32:19;100913.69;;;4.57;93.03
52469;BME280;38381;53.688;10.776;2024-02-26T17:37:20;100915.41;;;4.58;92.70
52469;BME280;38381;53.688;10.776;2024-02-26T17:42:20;100934.94;;;4.53;93.71
52469;BME280;38381;53.688;10.776;2024-02-26T17:47:21;100943.16;;;4.43;93.50
52469;BME280;38381;53.688;10.776;2024-02-26T17:52:22;100949.47;;;4.53;93.00
52469;BME280;38381;53.688;10.776;2024-02-26T17:57:22;100960.84;;;4.59;93.59
52469;BME280;38381;53.688;10.776;2024-02-26T18:02:23;100966.06;;;4.62;93.15
52469;BME280;38381;53.688;10.776;2024-02-26T18:07:23;100963.56;;;4.64;93.13
52469;BME280;38381;53.688;10.776;2024-02-26T18:12:24;100959.84;;;4.56;93.13
52469;BME280;38381;53.688;10.776;2024-02-26T18:17:24;100968.75;;;4.66;92.98
52469;BME280;38381;53.688;10.776;2024-02-26T18:22:26;100969.06;;;4.49;93.69
52469;BME280;38381;53.688;10.776;2024-02-26T18:27:26;100975.38;;;4.59;93.18
52469;BME280;38381;53.688;10.776;2024-02-26T18:32:31;100979.53;;;4.55;93.25
52469;BME280;38381;53.688;10.776;2024-02-26T18:37:31;100983.19;;;4.38;94.00
52469;BME280;38381;53.688;10.776;2024-02-26T18:42:32;100988.41;;;4.39;93.89
52469;BME280;38381;53.688;10.776;2024-02-26T18:47:34;100991.34;;;4.26;94.83
52469;BME280;38381;53.688;10.776;2024-02-26T18:52:34;101003.44;;;4.29;94.88
52469;BME280;38381;53.688;10.776;2024-02-26T18:57:37;101011.00;;;4.26;95.14
52469;BME280;38381;53.688;10.776;2024-02-26T19:02:37;101024.72;;;4.26;94.59
52469;BME280;38381;53.688;10.776;2024-02-26T19:07:37;101038.44;;;4.27;95.20
52469;BME280;38381;53.688;10.776;2024-02-26T19:12:38;101046.78;;;4.21;95.71
52469;BME280;38381;53.688;10.776;2024-02-26T19:17:39;101043.44;;;4.23;95.54
52469;BME280;38381;53.688;10.776;2024-02-26T19:22:39;101046.25;;;4.30;95.50
52469;BME280;38381;53.688;10.776;2024-02-26T19:27:42;101043.34;;;4.20;95.70
52469;BME280;38381;53.688;10.776;2024-02-26T19:32:42;101050.19;;;3.97;96.86
52469;BME280;38381;53.688;10.776;2024-02-26T19:37:43;101055.53;;;4.03;96.35
52469;BME280;38381;53.688;10.776;2024-02-26T19:42:43;101062.22;;;3.98;96.93
52469;BME280;38381;53.688;10.776;2024-02-26T19:47:44;101066.47;;;3.98;96.97
52469;BME280;38381;53.688;10.776;2024-02-26T19:52:47;101070.31;;;4.09;96.29
52469;BME280;38381;53.688;10.776;2024-02-26T19:57:49;101073.94;;;4.14;95.96
52469;BME280;38381;53.688;10.776;2024-02-26T20:02:49;101079.28;;;4.20;95.88
52469;BME280;38381;53.688;10.776;2024-02-26T20:07:50;101087.56;;;4.13;96.52
52469;BME280;38381;53.688;10.776;2024-02-26T20:12:52;101092.94;;;4.19;96.47
52469;BME280;38381;53.688;10.776;2024-02-26T20:17:52;101106.00;;;4.26;95.77
52469;BME280;38381;53.688;10.776;2024-02-26T20:22:53;101105.44;;;4.10;97.18
52469;BME280;38381;53.688;10.776;2024-02-26T20:27:53;101116.41;;;4.29;96.44
52469;BME280;38381;53.688;10.776;2024-02-26T20:32:53;101125.19;;;4.13;96.21
52469;BME280;38381;53.688;10.776;2024-02-26T20:37:54;101134.38;;;4.29;96.16
52469;BME280;38381;53.688;10.776;2024-02-26T20:42:54;101136.09;;;4.30;96.27
52469;BME280;38381;53.688;10.776;2024-02-26T20:47:55;101150.41;;;4.23;96.33
52469;BME280;38381;53.688;10.776;2024-02-26T20:52:55;101160.06;;;4.29;95.78
52469;BME280;38381;53.688;10.776;2024-02-26T20:57:56;101155.53;;;4.23;96.35
52469;BME280;38381;53.688;10.776;2024-02-26T21:02:57;101161.47;;;4.22;97.01
52469;BME280;38381;53.688;10.776;2024-02-26T21:07:58;101163.78;;;4.14;97.65
52469;BME280;38381;53.688;10.776;2024-02-26T21:12:59;101168.66;;;4.08;98.15
52469;BME280;38381;53.688;10.776;2024-02-26T21:17:59;101184.59;;;4.22;97.61
52469;BME280;38381;53.688;10.776;2024-02-26T21:22:59;101190.72;;;4.26;98.21
52469;BME280;38381;53.688;10.776;2024-02-26T21:28:00;101198.19;;;4.19;98.17
52469;BME280;38381;53.688;10.776;2024-02-26T21:33:02;101197.16;;;4.14;98.47
52469;BME280;38381;53.688;10.776;2024-02-26T21:38:03;101200.34;;;4.09;99.28
52469;BME280;38381;53.688;10.776;2024-02-26T21:43:05;101195.44;;;4.15;99.28
52469;BME280;38381;53.688;10.776;2024-02-26T21:48:06;101199.13;;;4.21;98.81
52469;BME280;38381;53.688;10.776;2024-02-26T21:53:07;101194.84;;;4.22;98.52
52469;BME280;38381;53.688;10.776;2024-02-26T21:58:07;101197.19;;;4.16;98.98
52469;BME280;38381;53.688;10.776;2024-02-26T22:03:07;101204.38;;;4.25;99.36
52469;BME280;38381;53.688;10.776;2024-02-26T22:08:08;101208.25;;;4.36;98.21
52469;BME280;38381;53.688;10.776;2024-02-26T22:13:08;101210.91;;;4.16;99.07
52469;BME280;38381;53.688;10.776;2024-02-26T22:18:09;101227.66;;;4.29;98.74
52469;BME280;38381;53.688;10.776;2024-02-26T22:23:10;101218.69;;;4.40;98.69
52469;BME280;38381;53.688;10.776;2024-02-26T22:28:10;101210.75;;;4.34;98.65
52469;BME280;38381;53.688;10.776;2024-02-26T22:33:11;101210.56;;;4.30;98.53
52469;BME280;38381;53.688;10.776;2024-02-26T22:38:11;101213.03;;;4.27;99.52
52469;BME280;38381;53.688;10.776;2024-02-26T22:43:12;101216.41;;;4.26;98.72
52469;BME280;38381;53.688;10.776;2024-02-26T22:48:12;101220.78;;;4.28;98.17
52469;BME280;38381;53.688;10.776;2024-02-26T22:53:16;101211.78;;;4.17;98.41
52469;BME280;38381;53.688;10.776;2024-02-26T22:58:19;101218.09;;;4.25;97.86
52469;BME280;38381;53.688;10.776;2024-02-26T23:03:20;101213.13;;;4.30;97.22
52469;BME280;38381;53.688;10.776;2024-02-26T23:08:20;101224.69;;;4.18;97.22
52469;BME280;38381;53.688;10.776;2024-02-26T23:13:21;101222.44;;;4.05;97.74
52469;BME280;38381;53.688;10.776;2024-02-26T23:18:21;101229.88;;;3.99;97.46
52469;BME280;38381;53.688;10.776;2024-02-26T23:23:23;101239.78;;;4.11;97.11
52469;BME280;38381;53.688;10.776;2024-02-26T23:28:24;101247.16;;;4.03;97.68
52469;BME280;38381;53.688;10.776;2024-02-26T23:33:24;101250.66;;;4.05;97.39
52469;BME280;38381;53.688;10.776;2024-02-26T23:38:25;101258.59;;;4.11;97.47
52469;BME280;38381;53.688;10.776;2024-02-26T23:43:25;101248.47;;;4.14;96.83
52469;BME280;38381;53.688;10.776;2024-02-26T23:48:25;101253.84;;;3.99;97.00
52469;BME280;38381;53.688;10.776;2024-02-26T23:53:26;101247.72;;;3.96;97.70
52469;BME280;38381;53.688;10.776;2024-02-26T23:58:26;101246.59;;;3.89;97.41
